Flight Track Log - Related Links

Times and Time Zones

All times are in EST time to prevent confusion due to time zone crossing. See the AAY654 flight status page for this flight to view local times or setup timezone preferences in your user account.

Time Position Orientation Groundspeed Altitude Reporting Facility
EST Latitude Longitude Course Direction KTS MPH feet Rate Location/Type
Wed 12:38:24 PM 28.7833 -81.2167 65° Northeast 168 193 800  Level Orlando TRACON
Wed 12:39:48 PM 28.8167 -81.1333 65° Northeast 247 284 4,000 2,440 Climbing Orlando TRACON
Wed 12:41:26 PM 28.8903 -81.2136 316° Northwest 248 285 8,200 2,685 Climbing Jacksonville Center
Wed 12:42:11 PM 28.9161 -81.2700 298° West 291 335 10,400 2,557 Climbing Jacksonville Center
Wed 12:42:27 PM 28.9350 -81.2842 327° Northwest 301 346 10,800 700 Climbing Jacksonville Center
Wed 12:43:11 PM 28.9917 -81.3211 330° Northwest 355 409 11,100 404 Climbing Jacksonville Center
Wed 12:44:11 PM 29.0781 -81.3792 330° Northwest 364 419 11,500 1,650 Climbing Jacksonville Center
Wed 12:45:11 PM 29.1847 -81.3964 352° North 372 428 14,400 2,600 Climbing Jacksonville Center
Wed 12:46:11 PM 29.2975 -81.4067 355° North 400 460 16,700 2,350 Climbing Jacksonville Center
Wed 12:47:11 PM 29.4189 -81.4217 354° North 419 482 19,100 2,100 Climbing Jacksonville Center
Wed 12:48:11 PM 29.5275 -81.4389 352° North 435 501 20,900 1,950 Climbing Jacksonville Center
Wed 12:49:11 PM 29.6531 -81.4586 352° North 441 507 23,000 1,950 Climbing Jacksonville Center
Wed 12:50:11 PM 29.7806 -81.4808 351° North 453 521 24,800 1,800 Climbing Jacksonville Center
Wed 12:51:11 PM 29.9103 -81.5053 351° North 459 528 26,600 2,100 Climbing Jacksonville Center
Wed 12:52:11 PM 30.0358 -81.5347 349° North 465 535 29,000 2,000 Climbing Jacksonville Center
Wed 12:53:11 PM 30.1633 -81.5544 352° North 465 535 30,600 1,550 Climbing Jacksonville Center
Wed 12:54:11 PM 30.2911 -81.5742 352° North 465 535 32,100 1,200 Climbing Jacksonville Center
Wed 12:55:11 PM 30.4292 -81.6036 350° North 465 535 33,000 450 Climbing Jacksonville Center
Wed 12:56:11 PM 30.5547 -81.6261 351° North 460 529 33,000 -50 Level Jacksonville Center
Wed 12:57:11 PM 30.6781 -81.6558 348° North 460 529 32,900 -50 Descending Jacksonville Center
Wed 12:58:11 PM 30.8036 -81.6711 354° North 455 524 32,900 50 Level Jacksonville Center
Wed 12:59:11 PM 30.9292 -81.7011 348° North 450 518 33,000 50 Climbing Jacksonville Center
Wed 01:00:11 PM 31.0544 -81.7236 351° North 450 518 33,000  Level Jacksonville Center
Wed 01:01:11 PM 31.1800 -81.7464 351° North 450 518 33,000  Level Jacksonville Center
Wed 01:02:11 PM 31.3036 -81.7789 347° North 445 512 33,000  Level Jacksonville Center
Wed 01:03:11 PM 31.4292 -81.8114 348° North 452 520 33,000  Level Jacksonville Center
Wed 01:04:11 PM 31.5506 -81.8492 345° North 452 520 33,000  Level Jacksonville Center
Wed 01:05:11 PM 31.6656 -81.8797 347° North 452 520 33,000  Level Jacksonville Center
Wed 01:07:35 PM 31.9650 -81.9653 346° North 458 527 33,000  Level Atlanta Center
Wed 01:08:35 PM 32.0967 -81.9769 356° North 458 527 33,000 50 Level Atlanta Center
Wed 01:09:35 PM 32.2244 -81.9961 353° North 463 533 33,100 500 Climbing Atlanta Center
Wed 01:10:35 PM 32.3686 -82.0100 355° North 463 533 34,000 450 Climbing Atlanta Center
Wed 01:11:35 PM 32.5003 -82.0217 356° North 463 533 34,000 250 Level Atlanta Center
Wed 01:12:35 PM 32.6319 -82.0408 353° North 468 539 34,500 500 Climbing Atlanta Center
Wed 01:13:35 PM 32.7636 -82.0503 357° North 468 539 35,000 250 Climbing Atlanta Center
Wed 01:14:35 PM 32.9014 -82.0397 North 478 550 35,000  Level Atlanta Center
Wed 01:15:35 PM 33.0347 -82.0342 North 478 550 35,000  Level Atlanta Center
Wed 01:16:35 PM 33.1600 -82.0289 North 483 556 35,000  Level Atlanta Center
Wed 01:17:35 PM 33.2933 -82.0233 North 483 556 35,000  Level Atlanta Center
Wed 01:18:35 PM 33.4269 -82.0153 North 477 549 35,000  Level Atlanta Center
Wed 01:19:35 PM 33.5625 -82.0044 North 482 555 35,000  Level Atlanta Center
Wed 01:20:35 PM 33.7000 -81.9989 North 482 555 35,000  Level Atlanta Center
Wed 01:21:35 PM 33.8378 -81.9881 North 482 555 35,000  Level Atlanta Center
Wed 01:22:35 PM 33.9733 -81.9847 North 482 555 35,000  Level Atlanta Center
Wed 01:23:35 PM 34.1108 -81.9739 North 482 555 35,000  Level Atlanta Center
Wed 01:24:35 PM 34.2486 -81.9706 North 482 555 35,000  Level Atlanta Center
Wed 01:25:35 PM 34.3839 -81.9597 North 482 555 35,000  Level Atlanta Center
Wed 01:26:35 PM 34.5358 -81.9231 11° North 490 564 35,000  Level Atlanta Center
Wed 01:27:35 PM 34.6728 -81.8919 11° North 495 570 35,000  Level Atlanta Center
Wed 01:28:35 PM 34.7997 -81.8633 10° North 500 575 35,000  Level Atlanta Center
Wed 01:29:35 PM 34.9347 -81.8294 12° North 505 581 35,000  Level Atlanta Center
Wed 01:30:35 PM 35.0758 -81.7903 13° North 505 581 35,000  Level Atlanta Center
Wed 01:31:35 PM 35.2150 -81.7558 11° North 505 581 35,000  Level Atlanta Center
Wed 01:32:35 PM 35.3542 -81.7189 12° North 505 581 35,000  Level Atlanta Center
Wed 01:33:35 PM 35.4911 -81.6844 12° North 505 581 35,000  Level Atlanta Center
Wed 01:34:35 PM 35.6344 -81.6497 11° North 505 581 35,000  Level Atlanta Center
Wed 01:35:35 PM 35.7736 -81.6122 12° North 505 581 35,000  Level Atlanta Center
Wed 01:36:35 PM 35.9125 -81.5775 11° North 505 581 35,000  Level Atlanta Center
Wed 01:37:35 PM 36.0558 -81.5372 13° North 505 581 35,000  Level Atlanta Center
Wed 01:38:35 PM 36.1947 -81.5044 11° North 510 587 35,000  Level Atlanta Center
Wed 01:39:35 PM 36.3378 -81.4639 13° North 510 587 35,000  Level Atlanta Center
Wed 01:40:35 PM 36.4808 -81.4231 13° North 510 587 35,000  Level Atlanta Center
Wed 01:42:24 PM 36.7311 -81.3589 12° North 523 602 35,000  Level Indianapolis Center
Wed 01:43:25 PM 36.9019 -81.3169 11° North 527 606 35,000  Level Indianapolis Center
Wed 01:44:27 PM 37.0467 -81.2739 13° North 531 611 35,000  Level Indianapolis Center
Wed 01:45:28 PM 37.1919 -81.2383 11° North 532 612 35,000  Level Indianapolis Center
Wed 01:46:30 PM 37.3286 -81.2022 12° North 533 613 35,000  Level Indianapolis Center
Wed 01:47:31 PM 37.4714 -81.1622 13° North 535 616 35,000  Level Indianapolis Center
Wed 01:48:33 PM 37.6447 -81.1192 11° North 537 618 35,000  Level Indianapolis Center
Wed 01:49:34 PM 37.7881 -81.0769 13° North 538 619 35,000  Level Indianapolis Center
Wed 01:50:36 PM 37.9206 -81.0442 11° North 534 615 35,000  Level Indianapolis Center
Wed 01:51:37 PM 38.0658 -81.0014 13° North 536 617 35,000  Level Indianapolis Center
Wed 01:52:39 PM 38.2392 -80.9547 12° North 533 613 35,000  Level Indianapolis Center
Wed 01:53:40 PM 38.3850 -80.9164 12° North 536 617 35,000  Level Indianapolis Center
Wed 01:54:42 PM 38.5308 -80.8708 14° North 541 623 35,000  Level Indianapolis Center
Wed 01:55:43 PM 38.6781 -80.8339 11° North 542 624 35,000  Level Indianapolis Center
Wed 01:56:45 PM 38.8228 -80.7886 14° North 541 623 35,000  Level Indianapolis Center
Wed 01:57:46 PM 38.9708 -80.7506 11° North 541 623 35,000  Level Indianapolis Center
Wed 01:58:48 PM 39.1172 -80.7042 14° North 545 627 35,000  Level Indianapolis Center
Wed 01:59:49 PM 39.2942 -80.6558 12° North 541 623 35,000  Level Indianapolis Center
Wed 02:00:51 PM 39.4411 -80.6131 13° North 542 624 35,000  Level Indianapolis Center
Wed 02:01:52 PM 39.5883 -80.5706 13° North 541 623 35,000  Level Indianapolis Center
Wed 02:02:23 PM 39.6444 -80.5583 10° North 547 629 35,000  Level Cleveland Center
Wed 02:03:25 PM 39.8197 -80.5081 12° North 539 620 35,000 -435 Level Cleveland Center
Wed 02:04:27 PM 39.9669 -80.4625 13° North 543 625 34,100 -919 Descending Cleveland Center
Wed 02:05:29 PM 40.1128 -80.4211 12° North 535 616 33,100 -1,500 Descending Cleveland Center
Wed 02:06:31 PM 40.2514 -80.3833 12° North 509 586 31,000 -1,645 Descending Cleveland Center
Wed 02:07:33 PM 40.3997 -80.3481 10° North 490 564 29,700 -968 Descending Cleveland Center
Wed 02:08:35 PM 40.5272 -80.3006 16° North 474 545 29,000 -339 Descending Cleveland Center
Wed 02:09:37 PM 40.6514 -80.2686 11° North 454 522 29,000  Level Cleveland Center
Wed 02:10:39 PM 40.7828 -80.2214 15° North 485 558 29,000  Level Cleveland Center
Wed 02:11:41 PM 40.9242 -80.1328 25° Northeast 491 565 29,000 -242 Level Cleveland Center
Wed 02:12:43 PM 41.0450 -80.0406 30° Northeast 501 577 28,500 -774 Descending Cleveland Center
Wed 02:13:45 PM 41.1697 -79.9439 30° Northeast 495 570 27,400 -1,016 Descending Cleveland Center
Wed 02:14:47 PM 41.2864 -79.8511 31° Northeast 491 565 26,400 -968 Descending Cleveland Center
Wed 02:15:49 PM 41.4025 -79.7575 31° Northeast 489 563 25,400 -677 Descending Cleveland Center
Wed 02:16:51 PM 41.5236 -79.6611 31° Northeast 500 575 25,000 -194 Descending Cleveland Center
Wed 02:17:53 PM 41.6422 -79.5631 32° Northeast 503 579 25,000 -435 Level Cleveland Center
Wed 02:18:55 PM 41.7631 -79.4778 28° Northeast 493 567 24,100 -1,500 Descending Cleveland Center
Wed 02:19:57 PM 41.9175 -79.4153 17° North 483 556 21,900 -1,935 Descending Cleveland Center
Wed 02:20:59 PM 42.0492 -79.3903 North 481 554 20,100 -1,548 Descending Cleveland Center
Wed 02:22:01 PM 42.1744 -79.3747 North 455 524 18,700 -1,161 Descending Cleveland Center
Wed 02:23:03 PM 42.2836 -79.3556 North 400 460 17,700 -1,210 Descending Cleveland Center
Wed 02:24:05 PM 42.3861 -79.3378 North 373 429 16,200 -1,742 Descending Cleveland Center
Wed 02:25:07 PM 42.4894 -79.2856 20° North 367 422 14,100 -2,226 Descending Cleveland Center
Wed 02:26:09 PM 42.5817 -79.2211 27° Northeast 373 429 11,600 -1,984 Descending Cleveland Center
Wed 02:27:11 PM 42.6772 -79.1517 28° Northeast 359 413 10,000 -1,355 Descending Cleveland Center
Wed 02:28:13 PM 42.7556 -79.0983 27° Northeast 309 356 8,800 -1,355 Descending Cleveland Center
Wed 02:29:15 PM 42.8297 -79.0392 30° Northeast 298 343 7,200 -1,548 Descending Cleveland Center
Wed 02:30:17 PM 42.9056 -78.9897 26° Northeast 291 335 5,600 -1,500 Descending Cleveland Center
Wed 02:31:19 PM 42.9703 -78.9233 37° Northeast 279 321 4,100 -818 Descending Cleveland Center
Wed 02:32:29 PM 43.0333 -78.8333 46° Northeast 214 246 3,800 -738 Descending Buffalo TRACON
Wed 02:33:29 PM 43.0667 -78.7833 48° Northeast 194 223 2,500 -947 Descending Buffalo TRACON
Wed 02:34:23 PM 43.1000 -78.8000 340° North 182 209 2,000 -474 Descending Buffalo TRACON
Wed 02:35:23 PM 43.1167 -78.8500 295° West 161 185 1,600 -550 Descending Buffalo TRACON
Wed 02:36:23 PM 43.1167 -78.9167 270° West 137 158 900 -700 Descending Buffalo TRACON

Login

Don't have an account? Register now (free) for customized features, flight alerts, and more!